createdAt,value
2022-08-26T00:00:40.992Z,99552.25
2022-08-26T00:01:29.626Z,99552.50
2022-08-26T00:02:17.028Z,99545.84
2022-08-26T00:03:07.848Z,99552.97
2022-08-26T00:03:56.766Z,99549.53
2022-08-26T00:04:44.692Z,99552.06
2022-08-26T00:05:31.855Z,99549.34
2022-08-26T00:06:20.897Z,99551.22
2022-08-26T00:07:08.191Z,99547.53
2022-08-26T00:07:56.122Z,99552.44
2022-08-26T00:08:43.471Z,99541.50
2022-08-26T00:09:33.842Z,99540.66
2022-08-26T00:10:26.272Z,99546.72
2022-08-26T00:11:13.942Z,99546.72
2022-08-26T00:12:00.941Z,99543.06
2022-08-26T00:12:48.101Z,99550.69
2022-08-26T00:13:35.342Z,99546.38
2022-08-26T00:14:28.260Z,99547.19
2022-08-26T00:15:19.171Z,99545.03
2022-08-26T00:16:08.574Z,99544.97
2022-08-26T00:16:59.281Z,99549.47
2022-08-26T00:17:46.904Z,99543.72
2022-08-26T00:18:38.804Z,99547.47
2022-08-26T00:19:28.418Z,99548.88
2022-08-26T00:20:18.881Z,99547.31
2022-08-26T00:21:06.455Z,99538.84
2022-08-26T00:21:53.742Z,99540.75
2022-08-26T00:22:40.912Z,99539.56
2022-08-26T00:23:28.857Z,99540.03
2022-08-26T00:24:16.392Z,99537.66
2022-08-26T00:25:05.920Z,99540.75
2022-08-26T00:25:53.622Z,99539.81
2022-08-26T00:26:41.435Z,99538.69
2022-08-26T00:27:28.452Z,99543.28
2022-08-26T00:28:15.383Z,99540.81
2022-08-26T00:29:06.231Z,99544.37
2022-08-26T00:29:53.062Z,99541.88
2022-08-26T00:30:40.383Z,99536.41
2022-08-26T00:31:27.435Z,99540.25
2022-08-26T00:32:14.391Z,99547.12
2022-08-26T00:33:02.433Z,99541.88
2022-08-26T00:33:49.563Z,99541.81
2022-08-26T00:34:36.612Z,99541.06
2022-08-26T00:35:24.592Z,99543.22
2022-08-26T00:36:20.433Z,99541.28
2022-08-26T00:37:08.962Z,99537.50
2022-08-26T00:37:57.991Z,99536.34
2022-08-26T00:38:44.854Z,99540.94
2022-08-26T00:39:32.872Z,99534.19
2022-08-26T00:40:25.645Z,99530.88
2022-08-26T00:41:12.911Z,99531.00
2022-08-26T00:42:00.771Z,99532.31
2022-08-26T00:42:50.132Z,99534.34
2022-08-26T00:43:46.287Z,99526.22
2022-08-26T00:44:34.833Z,99532.50
2022-08-26T00:45:22.001Z,99533.09
2022-08-26T00:46:18.952Z,99524.06
2022-08-26T00:47:08.462Z,99532.75
2022-08-26T00:48:00.991Z,99527.63
2022-08-26T00:48:53.866Z,99528.72
2022-08-26T00:49:44.974Z,99528.94
2022-08-26T00:50:36.752Z,99527.63
2022-08-26T00:51:29.789Z,99535.16
2022-08-26T00:52:20.121Z,99529.00
2022-08-26T00:53:24.162Z,99520.56
2022-08-26T00:54:13.245Z,99521.37
2022-08-26T00:55:04.871Z,99521.97
2022-08-26T00:56:08.288Z,99532.31
2022-08-26T00:56:56.211Z,99521.66
2022-08-26T00:57:44.401Z,99524.84
2022-08-26T00:58:34.104Z,99529.25
2022-08-26T00:59:21.912Z,99528.31
2022-08-26T01:00:16.884Z,99520.94
2022-08-26T01:01:04.426Z,99521.53
2022-08-26T01:01:51.862Z,99528.09
2022-08-26T01:02:39.459Z,99526.69
2022-08-26T01:03:35.052Z,99530.00
2022-08-26T01:04:23.521Z,99536.28
2022-08-26T01:05:13.208Z,99531.88
2022-08-26T01:06:01.702Z,99519.63
2022-08-26T01:06:50.464Z,99528.91
2022-08-26T01:07:39.622Z,99525.59
2022-08-26T01:08:27.422Z,99523.44
2022-08-26T01:09:14.811Z,99522.25
2022-08-26T01:10:04.172Z,99523.34
2022-08-26T01:10:52.532Z,99526.56
2022-08-26T01:11:42.991Z,99524.19
2022-08-26T01:12:34.381Z,99523.59
2022-08-26T01:13:21.603Z,99522.50
2022-08-26T01:14:08.913Z,99526.09
2022-08-26T01:14:56.323Z,99527.16
2022-08-26T01:15:46.742Z,99523.59
2022-08-26T01:16:33.654Z,99522.25
2022-08-26T01:17:20.605Z,99527.38
2022-08-26T01:18:08.093Z,99529.53
2022-08-26T01:18:59.582Z,99527.06
2022-08-26T01:19:50.741Z,99525.50
2022-08-26T01:21:03.823Z,99522.75
2022-08-26T01:21:56.952Z,99523.59
2022-08-26T01:23:04.148Z,99527.06
2022-08-26T01:23:52.282Z,99528.13
2022-08-26T01:24:44.742Z,99513.87
2022-08-26T01:25:34.122Z,99521.75
2022-08-26T01:26:34.071Z,99520.41
2022-08-26T01:27:22.221Z,99528.94
2022-08-26T01:28:17.566Z,99524.22
2022-08-26T01:29:06.243Z,99526.34
2022-08-26T01:29:53.211Z,99520.66
2022-08-26T01:30:41.012Z,99521.00
2022-08-26T01:31:31.688Z,99525.28
2022-08-26T01:32:20.473Z,99520.87
2022-08-26T01:33:11.894Z,99517.34
2022-08-26T01:34:35.422Z,99520.06
2022-08-26T01:35:22.462Z,99513.78
2022-08-26T01:36:09.572Z,99519.59
2022-08-26T01:37:07.791Z,99518.16
2022-08-26T01:37:58.623Z,99524.72
2022-08-26T01:38:45.721Z,99519.00
2022-08-26T01:39:33.671Z,99521.16
2022-08-26T01:40:26.948Z,99520.87
2022-08-26T01:41:16.285Z,99521.97
2022-08-26T01:42:10.782Z,99523.63
2022-08-26T01:42:58.871Z,99520.87
2022-08-26T01:43:47.382Z,99526.13
2022-08-26T01:44:41.074Z,99516.97
2022-08-26T01:45:31.109Z,99520.66
2022-08-26T01:46:19.185Z,99526.84
2022-08-26T01:47:06.933Z,99529.00
2022-08-26T01:47:56.765Z,99527.31
2022-08-26T01:48:48.062Z,99524.34
2022-08-26T01:49:41.149Z,99525.44
2022-08-26T01:50:33.144Z,99519.84
2022-08-26T01:51:20.703Z,99520.34
2022-08-26T01:52:09.221Z,99522.94
2022-08-26T01:53:04.093Z,99522.34
2022-08-26T01:53:51.151Z,99519.63
2022-08-26T01:54:39.619Z,99522.44
2022-08-26T01:55:32.179Z,99514.25
2022-08-26T01:56:22.392Z,99516.16
2022-08-26T01:57:09.591Z,99519.97
2022-08-26T01:57:57.561Z,99516.97
2022-08-26T01:58:55.560Z,99513.66
2022-08-26T01:59:43.195Z,99516.88
2022-08-26T02:00:30.102Z,99515.56
2022-08-26T02:01:17.204Z,99512.84
2022-08-26T02:02:05.130Z,99513.09
2022-08-26T02:03:13.750Z,99506.31
2022-08-26T02:04:22.040Z,99513.66
2022-08-26T02:05:13.321Z,99511.06
2022-08-26T02:06:04.171Z,99511.66
2022-08-26T02:06:51.590Z,99508.69
2022-08-26T02:07:40.016Z,99512.84
2022-08-26T02:08:33.301Z,99510.09
2022-08-26T02:09:20.383Z,99505.22
2022-08-26T02:10:10.381Z,99505.00
2022-08-26T02:10:57.417Z,99510.81
2022-08-26T02:11:45.333Z,99502.59
2022-08-26T02:12:32.200Z,99514.38
2022-08-26T02:13:19.091Z,99505.34
2022-08-26T02:14:11.552Z,99505.34
2022-08-26T02:15:01.408Z,99498.56
2022-08-26T02:15:53.529Z,99499.13
2022-08-26T02:16:42.765Z,99497.81
2022-08-26T02:17:34.666Z,99505.78
2022-08-26T02:18:22.877Z,99504.94
2022-08-26T02:19:17.039Z,99507.41
2022-08-26T02:20:05.061Z,99500.31
2022-08-26T02:20:53.162Z,99501.38
2022-08-26T02:21:41.291Z,99510.97
2022-08-26T02:22:29.020Z,99508.97
2022-08-26T02:23:15.951Z,99509.47
2022-08-26T02:24:12.032Z,99510.31
2022-08-26T02:25:05.611Z,99503.50
2022-08-26T02:26:04.891Z,99512.22
2022-08-26T02:26:52.120Z,99510.31
2022-08-26T02:27:39.093Z,99510.53
2022-08-26T02:28:28.354Z,99507.81
2022-08-26T02:29:37.051Z,99512.09
2022-08-26T02:30:28.539Z,99515.19
2022-08-26T02:31:15.548Z,99513.78
2022-08-26T02:32:02.661Z,99505.56
2022-08-26T02:32:51.682Z,99507.50
2022-08-26T02:33:43.011Z,99510.81
2022-08-26T02:34:35.251Z,99508.91
2022-08-26T02:35:23.832Z,99498.06
2022-08-26T02:36:12.147Z,99504.03
2022-08-26T02:37:02.132Z,99499.38
2022-08-26T02:37:50.561Z,99495.00
2022-08-26T02:38:37.512Z,99500.09
2022-08-26T02:39:27.223Z,99501.16
2022-08-26T02:40:16.101Z,99507.50
2022-08-26T02:41:03.407Z,99502.59
2022-08-26T02:41:50.552Z,99490.34
2022-08-26T02:42:37.838Z,99496.63
2022-08-26T02:43:31.504Z,99489.19
2022-08-26T02:44:19.840Z,99492.38
2022-08-26T02:45:07.732Z,99498.94
2022-08-26T02:45:54.802Z,99497.03
2022-08-26T02:46:42.190Z,99500.59
2022-08-26T02:47:34.321Z,99493.69
2022-08-26T02:48:21.751Z,99495.63
2022-08-26T02:49:09.972Z,99495.38
2022-08-26T02:49:56.773Z,99496.69
2022-08-26T02:50:44.013Z,99501.09
2022-08-26T02:51:31.154Z,99494.06
2022-08-26T02:52:20.352Z,99489.41
2022-08-26T02:53:08.759Z,99493.22
2022-08-26T02:53:55.734Z,99498.13
2022-08-26T02:54:42.871Z,99501.66
2022-08-26T02:55:29.841Z,99502.50
2022-08-26T02:56:16.761Z,99500.34
2022-08-26T02:57:03.932Z,99496.06
2022-08-26T02:57:53.532Z,99500.69
2022-08-26T02:58:40.540Z,99498.06
2022-08-26T02:59:29.519Z,99497.72
2022-08-26T03:00:17.213Z,99506.63
2022-08-26T03:01:04.869Z,99503.59
2022-08-26T03:01:52.612Z,99513.66
2022-08-26T03:02:42.971Z,99504.41
2022-08-26T03:03:30.341Z,99502.72
2022-08-26T03:04:17.303Z,99506.78
2022-08-26T03:05:04.591Z,99512.25
2022-08-26T03:05:52.673Z,99496.94
2022-08-26T03:06:39.797Z,99501.09
2022-08-26T03:07:28.412Z,99500.13
2022-08-26T03:08:15.751Z,99502.28
2022-08-26T03:09:02.670Z,99493.38
2022-08-26T03:09:50.331Z,99501.59
2022-08-26T03:10:39.461Z,99493.97
2022-08-26T03:11:30.947Z,99497.53
2022-08-26T03:12:20.562Z,99494.44
2022-08-26T03:13:07.707Z,99496.59
2022-08-26T03:13:55.429Z,99499.22
2022-08-26T03:14:42.411Z,99503.13
2022-08-26T03:15:29.363Z,99503.97
2022-08-26T03:16:16.770Z,99503.97
2022-08-26T03:17:04.180Z,99501.97
2022-08-26T03:17:51.062Z,99506.09
2022-08-26T03:18:38.113Z,99504.19
2022-08-26T03:19:26.339Z,99505.87
2022-08-26T03:20:13.764Z,99498.50
2022-08-26T03:21:07.212Z,99503.38
2022-08-26T03:21:57.748Z,99501.09
2022-08-26T03:22:45.674Z,99497.81
2022-08-26T03:23:33.351Z,99503.50
2022-08-26T03:24:21.452Z,99490.44
2022-08-26T03:25:11.703Z,99496.50
2022-08-26T03:25:58.595Z,99494.50
2022-08-26T03:26:51.991Z,99493.19
2022-08-26T03:27:39.861Z,99501.00
2022-08-26T03:28:29.861Z,99491.66
2022-08-26T03:29:35.384Z,99500.34
2022-08-26T03:30:45.489Z,99500.56
2022-08-26T03:31:32.700Z,99495.09
2022-08-26T03:32:20.858Z,99503.16
2022-08-26T03:33:10.332Z,99498.28
2022-08-26T03:33:59.818Z,99501.50
2022-08-26T03:34:47.012Z,99500.44
2022-08-26T03:35:34.911Z,99499.38
2022-08-26T03:36:22.352Z,99496.53
2022-08-26T03:37:09.224Z,99498.44
2022-08-26T03:37:56.594Z,99490.13
2022-08-26T03:38:44.141Z,99499.16
2022-08-26T03:39:32.613Z,99488.47
2022-08-26T03:40:20.576Z,99497.47
2022-08-26T03:41:09.213Z,99501.06
2022-08-26T03:41:56.022Z,99493.56
2022-08-26T03:42:45.402Z,99496.06
2022-08-26T03:43:32.312Z,99497.16
2022-08-26T03:44:19.382Z,99492.75
2022-08-26T03:45:09.054Z,99497.97
2022-08-26T03:45:55.831Z,99494.41
2022-08-26T03:46:42.793Z,99494.41
2022-08-26T03:47:31.831Z,99497.16
2022-08-26T03:48:19.071Z,99498.81
2022-08-26T03:49:06.311Z,99499.63
2022-08-26T03:49:53.406Z,99499.97
2022-08-26T03:50:40.671Z,99497.84
2022-08-26T03:51:28.433Z,99499.75
2022-08-26T03:52:15.612Z,99500.22
2022-08-26T03:53:02.801Z,99502.94
2022-08-26T03:53:49.601Z,99501.06
2022-08-26T03:54:36.401Z,99504.84
2022-08-26T03:55:26.905Z,99503.44
2022-08-26T03:56:15.165Z,99503.81
2022-08-26T03:57:02.312Z,99507.00
2022-08-26T03:57:50.112Z,99504.50
2022-08-26T03:58:37.981Z,99509.97
2022-08-26T03:59:25.005Z,99512.09
2022-08-26T04:00:15.461Z,99508.19
2022-08-26T04:01:05.528Z,99505.47
2022-08-26T04:01:54.733Z,99506.91
2022-08-26T04:02:46.404Z,99511.03
2022-08-26T04:03:52.449Z,99505.59
2022-08-26T04:04:39.901Z,99499.28
2022-08-26T04:05:28.330Z,99500.34
2022-08-26T04:06:15.391Z,99496.78
2022-08-26T04:07:04.152Z,99504.03
2022-08-26T04:07:51.593Z,99506.03
2022-08-26T04:08:38.671Z,99503.31
2022-08-26T04:09:27.680Z,99504.13
2022-08-26T04:10:20.258Z,99507.69
2022-08-26T04:11:07.659Z,99504.94
2022-08-26T04:11:55.392Z,99497.84
2022-08-26T04:12:44.252Z,99504.13
2022-08-26T04:13:32.541Z,99502.56
2022-08-26T04:14:22.371Z,99504.09
2022-08-26T04:15:12.735Z,99504.69
2022-08-26T04:15:59.928Z,99504.44
2022-08-26T04:16:47.542Z,99509.31
2022-08-26T04:17:34.771Z,99501.47
2022-08-26T04:18:22.311Z,99504.78
2022-08-26T04:19:10.632Z,99504.31
2022-08-26T04:19:57.861Z,99499.31
2022-08-26T04:20:44.632Z,99501.31
2022-08-26T04:21:31.790Z,99501.91
2022-08-26T04:22:24.963Z,99509.62
2022-08-26T04:23:12.032Z,99507.97
2022-08-26T04:23:59.272Z,99499.44
2022-08-26T04:24:50.691Z,99504.63
2022-08-26T04:25:37.531Z,99510.47
2022-08-26T04:26:27.361Z,99496.56
2022-08-26T04:27:14.435Z,99492.00
2022-08-26T04:28:01.442Z,99499.00
2022-08-26T04:28:49.680Z,99495.50
2022-08-26T04:29:36.571Z,99505.87
2022-08-26T04:30:25.692Z,99499.19
2022-08-26T04:31:14.868Z,99498.91
2022-08-26T04:32:03.260Z,99497.84
2022-08-26T04:32:50.181Z,99495.72
2022-08-26T04:33:37.040Z,99491.28
2022-08-26T04:34:29.085Z,99494.16
2022-08-26T04:35:15.981Z,99495.38
2022-08-26T04:36:05.591Z,99493.75
2022-08-26T04:36:52.542Z,99497.13
2022-08-26T04:37:39.801Z,99495.81
2022-08-26T04:38:30.502Z,99496.50
2022-08-26T04:39:20.291Z,99486.47
2022-08-26T04:40:10.219Z,99490.97
2022-08-26T04:40:57.572Z,99491.88
2022-08-26T04:41:44.992Z,99493.06
2022-08-26T04:42:33.473Z,99493.69
2022-08-26T04:43:21.165Z,99497.34
2022-08-26T04:44:08.212Z,99489.44
2022-08-26T04:44:55.558Z,99493.09
2022-08-26T04:45:43.764Z,99490.44
2022-08-26T04:46:30.820Z,99489.84
2022-08-26T04:47:17.661Z,99487.78
2022-08-26T04:48:06.393Z,99483.19
2022-08-26T04:48:58.043Z,99493.16
2022-08-26T04:49:45.243Z,99491.06
2022-08-26T04:50:32.881Z,99489.22
2022-08-26T04:51:20.774Z,99491.53
2022-08-26T04:52:07.562Z,99488.03
2022-08-26T04:52:55.474Z,99487.19
2022-08-26T04:53:42.581Z,99484.78
2022-08-26T04:54:29.491Z,99489.87
2022-08-26T04:55:16.352Z,99487.41
2022-08-26T04:56:03.881Z,99482.87
2022-08-26T04:56:51.093Z,99486.78
2022-08-26T04:57:37.964Z,99486.28
2022-08-26T04:58:26.251Z,99483.00
2022-08-26T04:59:17.055Z,99489.84
2022-08-26T05:00:06.933Z,99482.13
2022-08-26T05:00:55.232Z,99486.34
2022-08-26T05:01:47.149Z,99482.31
2022-08-26T05:02:35.074Z,99491.19
2022-08-26T05:03:22.912Z,99486.38
2022-08-26T05:04:10.270Z,99485.84
2022-08-26T05:04:58.879Z,99487.78
2022-08-26T05:05:47.666Z,99487.66
2022-08-26T05:06:36.940Z,99498.94
2022-08-26T05:07:24.201Z,99496.22
2022-08-26T05:08:12.410Z,99498.44
2022-08-26T05:08:59.294Z,99494.66
2022-08-26T05:09:46.170Z,99493.31
2022-08-26T05:10:35.233Z,99496.31
2022-08-26T05:11:22.183Z,99496.31
2022-08-26T05:12:09.883Z,99488.25
2022-08-26T05:13:00.455Z,99490.00
2022-08-26T05:13:47.562Z,99493.66
2022-08-26T05:14:34.341Z,99485.75
2022-08-26T05:15:21.252Z,99494.09
2022-08-26T05:16:11.627Z,99487.88
2022-08-26T05:16:58.798Z,99487.94
2022-08-26T05:17:45.555Z,99488.59
2022-08-26T05:18:34.322Z,99496.69
2022-08-26T05:19:21.991Z,99484.41
2022-08-26T05:20:09.232Z,99494.03
2022-08-26T05:20:57.631Z,99500.63
2022-08-26T05:21:44.462Z,99500.94
2022-08-26T05:22:33.992Z,99501.22
2022-08-26T05:23:22.986Z,99502.03
2022-08-26T05:24:11.991Z,99500.06
2022-08-26T05:24:58.731Z,99500.06
2022-08-26T05:25:48.436Z,99499.28
2022-08-26T05:26:35.183Z,99506.34
2022-08-26T05:27:22.028Z,99498.66
2022-08-26T05:28:10.508Z,99500.09
2022-08-26T05:28:58.101Z,99505.03
2022-08-26T05:29:45.521Z,99499.78
2022-08-26T05:30:32.879Z,99497.28
2022-08-26T05:31:24.337Z,99497.03
2022-08-26T05:32:11.270Z,99495.97
2022-08-26T05:32:58.263Z,99498.41
2022-08-26T05:33:46.921Z,99497.06
2022-08-26T05:34:33.822Z,99495.19
2022-08-26T05:35:20.555Z,99497.37
2022-08-26T05:36:11.183Z,99496.28
2022-08-26T05:36:58.723Z,99491.66
2022-08-26T05:37:45.572Z,99497.72
2022-08-26T05:38:32.379Z,99496.09
2022-08-26T05:39:20.011Z,99497.22
2022-08-26T05:40:08.624Z,99494.47
2022-08-26T05:40:57.934Z,99486.75
2022-08-26T05:41:45.042Z,99492.28
2022-08-26T05:42:33.582Z,99491.19
2022-08-26T05:43:20.901Z,99493.13
2022-08-26T05:44:10.371Z,99495.38
2022-08-26T05:44:57.489Z,99500.59
2022-08-26T05:45:47.263Z,99494.34
2022-08-26T05:46:35.400Z,99492.16
2022-08-26T05:47:22.335Z,99492.41
2022-08-26T05:48:10.492Z,99495.44
2022-08-26T05:48:57.755Z,99498.50
2022-08-26T05:49:51.450Z,99492.16
2022-08-26T05:50:44.199Z,99499.59
2022-08-26T05:51:31.146Z,99492.47
2022-08-26T05:52:18.054Z,99500.19
2022-08-26T05:53:07.416Z,99489.97
2022-08-26T05:53:56.282Z,99494.09
2022-08-26T05:54:43.131Z,99492.72
2022-08-26T05:55:30.087Z,99492.19
2022-08-26T05:56:17.592Z,99489.97
2022-08-26T05:57:04.632Z,99494.12
2022-08-26T05:57:51.579Z,99491.06
2022-08-26T05:58:40.865Z,99482.81
2022-08-26T05:59:27.801Z,99492.72
2022-08-26T06:00:16.331Z,99484.75
2022-08-26T06:01:13.355Z,99479.22
2022-08-26T06:02:00.226Z,99485.31
2022-08-26T06:02:48.403Z,99485.03
2022-08-26T06:03:37.572Z,99487.78
2022-08-26T06:04:27.810Z,99493.28
2022-08-26T06:05:16.675Z,99492.16
2022-08-26T06:06:08.554Z,99489.16
2022-08-26T06:06:58.142Z,99485.56
2022-08-26T06:08:03.860Z,99491.34
2022-08-26T06:08:51.616Z,99493.53
2022-08-26T06:09:38.752Z,99497.94
2022-08-26T06:10:33.149Z,99494.03
2022-08-26T06:11:26.922Z,99494.06
2022-08-26T06:12:13.883Z,99492.94
2022-08-26T06:13:09.234Z,99484.91
2022-08-26T06:14:03.996Z,99493.97
2022-08-26T06:14:51.423Z,99482.06
2022-08-26T06:15:46.330Z,99482.63
2022-08-26T06:16:35.957Z,99483.16
2022-08-26T06:17:22.760Z,99486.47
2022-08-26T06:18:10.691Z,99490.00
2022-08-26T06:18:57.832Z,99487.22
2022-08-26T06:19:44.675Z,99485.25
2022-08-26T06:20:32.290Z,99491.28
2022-08-26T06:21:32.502Z,99489.56
2022-08-26T06:22:38.531Z,99487.31
2022-08-26T06:23:46.326Z,99493.59
2022-08-26T06:24:52.142Z,99489.69
2022-08-26T06:25:39.410Z,99483.31
2022-08-26T06:26:26.597Z,99488.78
2022-08-26T06:27:15.163Z,99484.38
2022-08-26T06:28:02.500Z,99489.91
2022-08-26T06:28:50.082Z,99493.75
2022-08-26T06:29:37.811Z,99494.84
2022-08-26T06:30:24.805Z,99492.88
2022-08-26T06:31:12.856Z,99494.41
2022-08-26T06:32:00.541Z,99491.03
2022-08-26T06:32:47.483Z,99493.53
2022-08-26T06:33:36.581Z,99489.87
2022-08-26T06:34:29.787Z,99490.84
2022-08-26T06:35:17.343Z,99493.53
2022-08-26T06:36:04.462Z,99491.75
2022-08-26T06:36:53.112Z,99493.06
2022-08-26T06:37:40.780Z,99495.78
2022-08-26T06:38:28.974Z,99486.12
2022-08-26T06:39:17.952Z,99492.38
2022-08-26T06:40:07.830Z,99487.41
2022-08-26T06:40:59.766Z,99489.87
2022-08-26T06:41:46.903Z,99484.88
2022-08-26T06:42:34.042Z,99494.00
2022-08-26T06:43:23.973Z,99487.41
2022-08-26T06:44:12.915Z,99488.47
2022-08-26T06:44:59.948Z,99493.09
2022-08-26T06:45:47.491Z,99489.44
2022-08-26T06:46:35.107Z,99492.97
2022-08-26T06:47:22.326Z,99484.91
2022-08-26T06:48:09.339Z,99486.59
2022-08-26T06:49:00.443Z,99487.94
2022-08-26T06:49:47.466Z,99490.97
2022-08-26T06:50:35.395Z,99489.78
2022-08-26T06:51:26.432Z,99490.09
2022-08-26T06:52:13.411Z,99484.91
2022-08-26T06:53:00.283Z,99494.72
2022-08-26T06:53:49.053Z,99491.97
2022-08-26T06:54:37.233Z,99496.13
2022-08-26T06:55:27.131Z,99493.84
2022-08-26T06:56:17.113Z,99495.12
2022-08-26T06:57:04.055Z,99493.69
2022-08-26T06:57:51.081Z,99495.28
2022-08-26T06:58:39.394Z,99500.16
2022-08-26T06:59:28.501Z,99494.56
2022-08-26T07:00:18.481Z,99494.03
2022-08-26T07:01:15.849Z,99491.72
2022-08-26T07:02:06.307Z,99496.03
2022-08-26T07:02:55.196Z,99494.31
2022-08-26T07:03:42.132Z,99496.19
2022-08-26T07:04:34.831Z,99492.00
2022-08-26T07:05:22.632Z,99493.72
2022-08-26T07:06:11.030Z,99489.38
2022-08-26T07:06:58.131Z,99495.91
2022-08-26T07:07:45.044Z,99491.19
2022-08-26T07:08:31.992Z,99493.16
2022-08-26T07:09:22.951Z,99494.94
2022-08-26T07:10:10.301Z,99495.19
2022-08-26T07:10:57.373Z,99500.31
2022-08-26T07:11:44.820Z,99495.31
2022-08-26T07:12:32.435Z,99494.38
2022-08-26T07:13:29.969Z,99486.53
2022-08-26T07:14:21.199Z,99491.28
2022-08-26T07:15:08.891Z,99484.59
2022-08-26T07:15:58.195Z,99486.84
2022-08-26T07:16:50.727Z,99486.78
2022-08-26T07:17:39.011Z,99484.81
2022-08-26T07:18:27.358Z,99482.97
2022-08-26T07:19:15.636Z,99486.16
2022-08-26T07:20:07.570Z,99487.50
2022-08-26T07:20:54.880Z,99486.62
2022-08-26T07:21:43.159Z,99492.16
2022-08-26T07:22:30.543Z,99486.78
2022-08-26T07:23:17.398Z,99486.62
2022-08-26T07:24:04.636Z,99491.34
2022-08-26T07:24:51.556Z,99494.91
2022-08-26T07:25:40.179Z,99488.94
2022-08-26T07:26:29.330Z,99485.66
2022-08-26T07:27:17.149Z,99489.38
2022-08-26T07:28:04.462Z,99489.38
2022-08-26T07:28:53.486Z,99481.53
2022-08-26T07:29:41.024Z,99493.28
2022-08-26T07:30:27.876Z,99487.09
2022-08-26T07:31:15.896Z,99484.31
2022-08-26T07:32:03.502Z,99492.69
2022-08-26T07:32:50.466Z,99493.81
2022-08-26T07:33:39.117Z,99494.19
2022-08-26T07:34:26.304Z,99491.63
2022-08-26T07:35:14.318Z,99495.97
2022-08-26T07:36:01.388Z,99489.75
2022-08-26T07:36:51.806Z,99488.28
2022-08-26T07:37:39.338Z,99488.66
2022-08-26T07:38:26.326Z,99482.22
2022-08-26T07:39:13.166Z,99483.78
2022-08-26T07:40:00.231Z,99480.94
2022-08-26T07:40:48.229Z,99475.87
2022-08-26T07:41:36.723Z,99481.03
2022-08-26T07:42:24.063Z,99481.75
2022-08-26T07:43:11.008Z,99485.13
2022-08-26T07:43:57.806Z,99485.13
2022-08-26T07:44:45.855Z,99484.44
2022-08-26T07:45:32.985Z,99480.47
2022-08-26T07:46:27.147Z,99479.56
2022-08-26T07:47:24.870Z,99483.63
2022-08-26T07:48:13.308Z,99483.31
2022-08-26T07:49:00.267Z,99483.97
2022-08-26T07:49:47.260Z,99480.00
2022-08-26T07:50:49.011Z,99487.66
2022-08-26T07:51:37.845Z,99481.81
2022-08-26T07:52:27.717Z,99487.25
2022-08-26T07:53:15.069Z,99482.13
2022-08-26T07:54:07.013Z,99488.94
2022-08-26T07:54:54.236Z,99484.16
2022-08-26T07:55:41.357Z,99488.47
2022-08-26T07:56:28.438Z,99484.78
2022-08-26T07:57:15.306Z,99488.06
2022-08-26T07:58:06.540Z,99482.13
2022-08-26T07:58:54.422Z,99481.41
2022-08-26T07:59:41.607Z,99481.63
2022-08-26T08:00:29.820Z,99481.84
2022-08-26T08:01:16.807Z,99479.81
2022-08-26T08:02:03.917Z,99482.47
2022-08-26T08:02:51.526Z,99473.84
2022-08-26T08:03:42.456Z,99477.66
2022-08-26T08:04:29.597Z,99470.56
2022-08-26T08:05:18.707Z,99477.34
2022-08-26T08:06:05.800Z,99477.56
2022-08-26T08:06:53.296Z,99465.94
2022-08-26T08:07:44.839Z,99474.87
2022-08-26T08:08:33.096Z,99477.84
2022-08-26T08:09:20.086Z,99474.03
2022-08-26T08:10:11.634Z,99472.47
2022-08-26T08:10:58.841Z,99475.25
2022-08-26T08:11:46.868Z,99468.59
2022-08-26T08:12:35.276Z,99463.03
2022-08-26T08:13:22.797Z,99479.06
2022-08-26T08:14:11.836Z,99472.28
2022-08-26T08:14:58.857Z,99473.13
2022-08-26T08:15:46.386Z,99466.44
2022-08-26T08:16:33.602Z,99471.88
2022-08-26T08:17:21.767Z,99467.84
2022-08-26T08:18:15.434Z,99472.41
2022-08-26T08:19:02.846Z,99470.94
2022-08-26T08:19:50.696Z,99472.06
2022-08-26T08:20:37.616Z,99475.78
2022-08-26T08:21:26.272Z,99467.13
2022-08-26T08:22:17.386Z,99479.19
2022-08-26T08:23:04.718Z,99475.91
2022-08-26T08:23:56.439Z,99473.72
2022-08-26T08:24:43.776Z,99478.34
2022-08-26T08:25:32.526Z,99480.81
2022-08-26T08:26:19.653Z,99479.78
2022-08-26T08:27:07.057Z,99473.94
2022-08-26T08:27:55.616Z,99478.75
2022-08-26T08:28:44.056Z,99469.16
2022-08-26T08:29:30.993Z,99474.00
2022-08-26T08:30:20.886Z,99476.41
2022-08-26T08:31:11.474Z,99475.03
2022-08-26T08:31:59.988Z,99475.47
2022-08-26T08:32:47.426Z,99472.28
2022-08-26T08:33:35.481Z,99476.91
2022-08-26T08:34:23.007Z,99480.91
2022-08-26T08:35:12.619Z,99479.69
2022-08-26T08:36:00.420Z,99480.41
2022-08-26T08:36:47.752Z,99475.87
2022-08-26T08:37:36.668Z,99472.66
2022-08-26T08:38:24.076Z,99473.69
2022-08-26T08:39:11.926Z,99471.06
2022-08-26T08:39:59.827Z,99476.81
2022-08-26T08:40:47.136Z,99470.22
2022-08-26T08:41:53.528Z,99479.38
2022-08-26T08:43:24.885Z,99463.84
2022-08-26T08:45:23.737Z,99465.81
2022-08-26T08:46:13.276Z,99470.41
2022-08-26T08:47:06.226Z,99466.50
2022-08-26T08:47:59.757Z,99468.13
2022-08-26T08:48:53.940Z,99468.34
2022-08-26T08:49:42.316Z,99464.69
2022-08-26T08:50:43.441Z,99466.94
2022-08-26T08:51:50.577Z,99463.53
2022-08-26T08:52:38.166Z,99467.06
2022-08-26T08:53:36.025Z,99472.50
2022-08-26T08:54:26.526Z,99462.78
2022-08-26T08:55:17.751Z,99472.44
2022-08-26T08:56:10.876Z,99468.28
2022-08-26T08:57:04.046Z,99466.69
2022-08-26T08:58:02.447Z,99460.94
2022-08-26T08:59:07.548Z,99468.19
2022-08-26T09:00:05.737Z,99468.50
2022-08-26T09:01:00.263Z,99467.59
2022-08-26T09:01:52.447Z,99466.44
2022-08-26T09:03:31.116Z,99469.13
2022-08-26T09:04:26.986Z,99470.00
2022-08-26T09:05:25.573Z,99470.66
2022-08-26T09:06:18.864Z,99467.94
2022-08-26T09:07:11.035Z,99462.94
2022-08-26T09:08:11.295Z,99470.16
2022-08-26T09:08:58.256Z,99471.06
2022-08-26T09:09:50.257Z,99475.59
2022-08-26T09:10:45.128Z,99474.75
2022-08-26T09:11:32.713Z,99470.22
2022-08-26T09:12:29.846Z,99469.66
2022-08-26T09:13:19.590Z,99461.00
2022-08-26T09:14:13.236Z,99467.56
2022-08-26T09:15:12.227Z,99472.31
2022-08-26T09:16:06.897Z,99467.22
2022-08-26T09:17:06.294Z,99466.47
2022-08-26T09:18:06.696Z,99463.06
2022-08-26T09:19:08.885Z,99464.19
2022-08-26T09:20:06.277Z,99464.56
2022-08-26T09:21:14.392Z,99464.75
2022-08-26T09:22:04.738Z,99464.62
2022-08-26T09:22:56.977Z,99464.66
2022-08-26T09:23:47.005Z,99460.22
2022-08-26T09:24:41.772Z,99452.87
2022-08-26T09:25:46.122Z,99459.75
2022-08-26T09:26:39.581Z,99457.94
2022-08-26T09:27:50.431Z,99459.09
2022-08-26T09:28:42.503Z,99452.44
2022-08-26T09:29:32.648Z,99458.13
2022-08-26T09:30:30.590Z,99453.56
2022-08-26T09:31:24.349Z,99452.25
2022-08-26T09:32:24.450Z,99458.41
2022-08-26T09:33:17.067Z,99456.62
2022-08-26T09:34:22.617Z,99455.66
2022-08-26T09:35:32.120Z,99449.69
2022-08-26T09:36:26.386Z,99454.41
2022-08-26T09:37:14.118Z,99459.59
2022-08-26T09:38:00.976Z,99454.81
2022-08-26T09:38:52.414Z,99451.72
2022-08-26T09:39:39.696Z,99450.75
2022-08-26T09:40:34.643Z,99450.94
2022-08-26T09:41:34.035Z,99455.38
2022-08-26T09:42:22.941Z,99452.00
2022-08-26T09:43:22.150Z,99447.91
2022-08-26T09:44:14.740Z,99451.50
2022-08-26T09:45:06.716Z,99445.28
2022-08-26T09:45:59.319Z,99445.44
2022-08-26T09:46:54.716Z,99446.91
2022-08-26T09:47:47.999Z,99446.41